Time;durP1;ratioP1;P1;durP2;ratioP2;P2;SDS_P1;SDS_P2;PMS_P1;PMS_P2;Temp;Humidity;BMP_temperature;BMP_pressure;BME280_temperature;BME280_humidity;BME280_pressure;Samples;Min_cycle;Max_cycle;Signal;HPM_P1;HPM_P2
2023/10/02 00:01:56;;;;;;;32.00;21.77;;;10.90;99.90;;;;;;25634090;23;20511;-53
2023/10/02 00:12:01;;;;;;;32.22;19.00;;;11.00;99.90;;;;;;25592168;23;20310;-50
2023/10/02 00:22:07;;;;;;;31.20;21.23;;;11.00;99.90;;;;;;25591782;23;20088;-51
2023/10/02 00:32:12;;;;;;;23.63;16.40;;;10.90;99.90;;;;;;25602995;23;20017;-50
2023/10/02 00:42:24;;;;;;;26.80;16.27;;;11.10;99.90;;;;;;25591123;23;20009;-58
2023/10/02 00:52:26;;;;;;;27.27;14.77;;;11.00;99.90;;;;;;25631926;23;20341;-58
2023/10/02 01:02:28;;;;;;;26.67;12.68;;;10.90;99.90;;;;;;25590562;23;20005;-59
2023/10/02 01:12:43;;;;;;;25.35;13.00;;;11.20;99.90;;;;;;25589880;23;20349;-50
2023/10/02 01:22:51;;;;;;;25.10;12.23;;;11.40;99.90;;;;;;25630836;23;20147;-52
2023/10/02 01:43:22;;;;;;;24.35;12.10;;;10.90;99.90;;;;;;25630200;23;20421;-58
2023/10/02 01:53:30;;;;;;;22.52;12.27;;;11.30;99.90;;;;;;25562384;23;20060;-58
2023/10/02 02:03:33;;;;;;;20.25;11.32;;;11.40;99.90;;;;;;25635553;23;20328;-51
2023/10/02 02:13:44;;;;;;;22.15;12.43;;;11.40;99.90;;;;;;25597273;23;20005;-51
2023/10/02 02:23:46;;;;;;;25.73;12.32;;;11.30;99.90;;;;;;25611467;23;20001;-50
2023/10/02 02:33:51;;;;;;;26.60;12.75;;;11.30;99.90;;;;;;25595225;23;20017;-53
2023/10/02 02:43:53;;;;;;;30.00;13.65;;;11.10;99.90;;;;;;25595615;23;20051;-59
2023/10/02 02:53:55;;;;;;;27.90;12.75;;;10.90;99.90;;;;;;25595713;23;20005;-48
2023/10/02 03:03:59;;;;;;;29.13;13.55;;;11.00;99.90;;;;;;25595597;23;20032;-52
2023/10/02 03:14:12;;;;;;;29.67;13.82;;;11.00;99.90;;;;;;25567397;23;20009;-50
2023/10/02 03:24:18;;;;;;;32.17;13.15;;;11.30;99.90;;;;;;25635318;23;20001;-58
2023/10/02 03:34:27;;;;;;;27.02;12.70;;;11.00;99.90;;;;;;25610552;23;20013;-49
2023/10/02 03:44:29;;;;;;;28.83;12.95;;;11.10;99.90;;;;;;25634101;23;20445;-58
2023/10/02 03:54:33;;;;;;;32.25;13.80;;;11.00;99.90;;;;;;25592572;23;20005;-49
2023/10/02 04:04:35;;;;;;;27.60;12.45;;;10.80;99.90;;;;;;25592189;23;20004;-58
2023/10/02 04:14:38;;;;;;;27.58;13.50;;;11.00;99.90;;;;;;25565493;23;20005;-48
2023/10/02 04:24:54;;;;;;;23.52;11.52;;;10.80;99.90;;;;;;25591021;23;20519;-59
2023/10/02 04:34:56;;;;;;;26.13;12.48;;;11.20;99.90;;;;;;25605711;23;20021;-58
2023/10/02 04:44:58;;;;;;;23.17;12.23;;;11.20;99.90;;;;;;25590146;23;20059;-51
2023/10/02 04:55:07;;;;;;;26.23;12.27;;;11.10;99.90;;;;;;25590053;23;20009;-58
2023/10/02 05:05:09;;;;;;;22.48;11.43;;;11.00;99.90;;;;;;25631104;23;20024;-58
2023/10/02 05:15:20;;;;;;;27.90;12.35;;;11.20;99.90;;;;;;25588996;23;20015;-53
2023/10/02 05:25:23;;;;;;;26.77;12.77;;;11.40;99.90;;;;;;25629998;23;20005;-58
2023/10/02 05:35:25;;;;;;;24.45;12.65;;;11.40;99.90;;;;;;25588353;23;20009;-57
2023/10/02 05:56:12;;;;;;;24.23;12.45;;;11.40;99.90;;;;;;25067838;23;20284;-58
2023/10/02 06:06:24;;;;;;;22.52;13.52;;;11.20;99.90;;;;;;25097357;23;20058;-59
2023/10/02 06:16:29;;;;;;;24.38;13.55;;;11.20;99.90;;;;;;25107355;23;20011;-50
2023/10/02 06:26:46;;;;;;;24.52;15.15;;;11.30;99.90;;;;;;25236024;23;20510;-58
2023/10/02 06:36:48;;;;;;;24.67;15.27;;;11.50;99.90;;;;;;25594622;23;20021;-58
2023/10/02 06:46:53;;;;;;;23.67;14.65;;;11.60;99.90;;;;;;25591418;23;20005;-47
2023/10/02 06:56:56;;;;;;;25.75;15.45;;;12.00;99.90;;;;;;25594627;23;20009;-49
2023/10/02 07:07:03;;;;;;;26.80;18.40;;;12.60;99.90;;;;;;25594507;23;20009;-52
2023/10/02 07:17:17;;;;;;;26.98;20.10;;;13.40;99.90;;;;;;25635312;23;20009;-59
2023/10/02 07:27:26;;;;;;;26.52;17.92;;;14.40;99.90;;;;;;25634546;23;20005;-59
2023/10/02 07:37:31;;;;;;;30.77;19.33;;;15.30;99.90;;;;;;25592658;23;20031;-60
2023/10/02 07:47:39;;;;;;;26.10;16.92;;;16.30;99.90;;;;;;25592850;23;20012;-60
2023/10/02 07:57:41;;;;;;;27.33;17.40;;;17.30;99.90;;;;;;25632972;23;20013;-61
2023/10/02 08:07:43;;;;;;;25.08;18.77;;;18.10;99.90;;;;;;25592102;23;20005;-61
2023/10/02 08:27:55;;;;;;;21.55;16.77;;;19.40;99.90;;;;;;25591827;23;20005;-62
2023/10/02 08:37:58;;;;;;;23.70;15.00;;;19.70;99.90;;;;;;25593060;23;20072;-62
2023/10/02 08:48:07;;;;;;;20.13;13.43;;;20.20;99.90;;;;;;25590129;23;20008;-61
2023/10/02 08:58:15;;;;;;;23.52;13.18;;;20.70;99.90;;;;;;25630532;23;20302;-61
2023/10/02 09:08:17;;;;;;;23.77;13.27;;;21.10;99.90;;;;;;25631085;23;20282;-49
2023/10/02 09:19:07;;;;;;;21.45;12.85;;;20.90;99.90;;;;;;25589371;23;20120;-62
2023/10/02 09:29:04;;;;;;;20.55;12.95;;;21.30;99.90;;;;;;25589583;23;20017;-61
2023/10/02 09:39:31;;;;;;;21.10;12.75;;;21.70;99.90;;;;;;25629714;23;20412;-61
2023/10/02 09:49:36;;;;;;;21.33;13.30;;;21.70;99.90;;;;;;25588699;23;20012;-48
2023/10/02 09:59:46;;;;;;;22.58;12.38;;;22.00;99.90;;;;;;25629342;23;20131;-60
2023/10/02 10:20:47;;;;;;;24.42;14.50;;;22.40;99.90;;;;;;25591416;23;20005;-61
2023/10/02 10:30:50;;;;;;;23.80;14.35;;;22.40;99.90;;;;;;25595379;23;20093;-60
2023/10/02 10:41:00;;;;;;;22.98;14.50;;;22.50;99.90;;;;;;25595103;23;20486;-61
2023/10/02 10:51:20;;;;;;;22.23;14.70;;;22.60;99.90;;;;;;25636463;23;20329;-60
2023/10/02 11:01:25;;;;;;;18.38;13.25;;;22.60;99.90;;;;;;25636091;23;20005;-60
2023/10/02 11:11:54;;;;;;;19.98;13.50;;;22.70;99.90;;;;;;25635672;23;20055;-60
2023/10/02 11:22:22;;;;;;;19.98;14.40;;;22.70;99.90;;;;;;25593787;23;20012;-61
2023/10/02 11:32:24;;;;;;;21.33;14.80;;;22.80;99.90;;;;;;25618245;23;20340;-60
2023/10/02 11:42:26;;;;;;;23.60;16.10;;;22.50;99.90;;;;;;25592813;23;20001;-60
2023/10/02 11:52:29;;;;;;;24.58;17.35;;;22.60;99.90;;;;;;25592619;23;20001;-60
2023/10/02 12:02:32;;;;;;;26.45;17.55;;;22.80;99.90;;;;;;25592779;23;20043;-61
2023/10/02 12:12:34;;;;;;;27.98;19.23;;;22.90;99.90;;;;;;25591412;23;20324;-62
2023/10/02 12:22:35;;;;;;;24.45;18.92;;;23.10;99.90;;;;;;25591792;23;20009;-62
2023/10/02 12:32:42;;;;;;;27.85;21.92;;;22.90;99.90;;;;;;25592178;23;20058;-62
2023/10/02 12:42:44;;;;;;;28.85;20.50;;;22.90;99.90;;;;;;25590072;23;20005;-62
2023/10/02 12:52:46;;;;;;;25.58;20.13;;;22.80;99.90;;;;;;25590170;23;20411;-62
2023/10/02 13:02:48;;;;;;;28.20;21.65;;;22.80;99.90;;;;;;25590371;23;20005;-53
2023/10/02 13:12:51;;;;;;;28.00;22.02;;;22.60;99.90;;;;;;25562007;23;20001;-63
2023/10/02 13:22:54;;;;;;;26.13;20.85;;;22.40;99.90;;;;;;25589487;23;20425;-63
2023/10/02 13:32:59;;;;;;;33.33;25.70;;;22.00;99.90;;;;;;25588658;23;20013;-53
2023/10/02 13:43:03;;;;;;;31.35;24.45;;;21.30;99.90;;;;;;25629821;23;20404;-50
2023/10/02 13:53:06;;;;;;;36.58;27.55;;;20.60;99.90;;;;;;25561466;23;20059;-49
2023/10/02 14:03:10;;;;;;;33.17;26.50;;;20.20;99.90;;;;;;25588435;23;20402;-53
2023/10/02 14:13:13;;;;;;;38.45;30.88;;;19.90;99.90;;;;;;25587812;23;20009;-62
2023/10/02 14:23:15;;;;;;;35.08;28.48;;;19.60;99.90;;;;;;25587985;23;20376;-61
2023/10/02 14:33:20;;;;;;;36.50;30.90;;;19.30;99.90;;;;;;25587940;23;20088;-53
2023/10/02 14:43:22;;;;;;;36.75;29.73;;;18.80;99.90;;;;;;25588775;23;20005;-61
2023/10/02 14:53:24;;;;;;;42.72;31.50;;;18.40;99.90;;;;;;25586932;23;20001;-60
2023/10/02 15:03:26;;;;;;;48.45;34.03;;;18.10;99.90;;;;;;25587717;23;20012;-61
2023/10/02 15:13:28;;;;;;;43.53;33.08;;;17.70;99.90;;;;;;25594000;23;20321;-52
2023/10/02 15:23:32;;;;;;;50.67;36.63;;;17.40;99.90;;;;;;25593554;23;20001;-52
2023/10/02 15:33:35;;;;;;;48.30;37.28;;;17.00;99.90;;;;;;25593238;23;20393;-60
2023/10/02 15:43:39;;;;;;;52.80;37.47;;;16.60;99.90;;;;;;25592922;23;20385;-52
2023/10/02 15:53:41;;;;;;;53.42;37.97;;;16.00;99.90;;;;;;25592699;23;20001;-59
2023/10/02 16:03:47;;;;;;;66.38;41.03;;;15.30;99.90;;;;;;25592338;23;20012;-59
2023/10/02 16:13:51;;;;;;;62.45;42.55;;;14.70;99.90;;;;;;25633013;23;20353;-59
2023/10/02 16:23:53;;;;;;;61.35;42.28;;;14.40;99.90;;;;;;25591384;23;20507;-59
2023/10/02 16:33:54;;;;;;;73.65;49.13;;;14.40;99.90;;;;;;25591310;23;20053;-59
2023/10/02 16:43:57;;;;;;;73.53;48.15;;;14.30;99.90;;;;;;25591471;23;20277;-60
2023/10/02 16:53:59;;;;;;;74.63;50.10;;;14.30;99.90;;;;;;25590991;23;20012;-59
2023/10/02 17:04:00;;;;;;;70.05;45.70;;;14.50;99.90;;;;;;25564328;23;20016;-59
2023/10/02 17:14:02;;;;;;;83.90;50.90;;;14.40;99.90;;;;;;25590198;23;20005;-59
2023/10/02 17:24:06;;;;;;;83.13;54.45;;;13.80;99.90;;;;;;25589929;23;20005;-53
2023/10/02 17:34:09;;;;;;;81.25;49.58;;;13.50;99.90;;;;;;25562791;23;20154;-53
2023/10/02 17:44:11;;;;;;;68.18;46.90;;;13.90;99.90;;;;;;25589060;23;20008;-59
2023/10/02 17:54:14;;;;;;;66.78;43.75;;;14.20;99.90;;;;;;25590656;23;20413;-59
2023/10/02 18:04:16;;;;;;;65.65;44.25;;;14.00;99.90;;;;;;25589192;23;20001;-59
2023/10/02 18:14:18;;;;;;;65.72;45.72;;;13.90;99.90;;;;;;25588634;23;20341;-58
2023/10/02 18:24:20;;;;;;;57.35;38.80;;;13.70;99.90;;;;;;25587076;23;20013;-59
2023/10/02 18:34:25;;;;;;;55.17;36.78;;;13.20;99.90;;;;;;25588405;23;20013;-58
2023/10/02 18:44:27;;;;;;;61.35;39.28;;;12.70;99.90;;;;;;25594980;23;20018;-48
2023/10/02 18:54:29;;;;;;;66.95;42.20;;;12.20;99.90;;;;;;25595802;23;20076;-51
2023/10/02 19:04:31;;;;;;;75.13;48.03;;;12.10;99.90;;;;;;25592727;23;20001;-59
2023/10/02 19:14:33;;;;;;;72.00;45.38;;;12.00;99.90;;;;;;25595133;23;20005;-58
2023/10/02 19:24:35;;;;;;;61.22;39.28;;;11.90;99.90;;;;;;25594856;23;20032;-59
2023/10/02 19:34:37;;;;;;;58.50;36.67;;;11.70;99.90;;;;;;25594100;23;20013;-59
2023/10/02 19:44:39;;;;;;;71.47;46.15;;;11.60;99.90;;;;;;25567921;23;20008;-60
2023/10/02 19:54:41;;;;;;;79.35;47.50;;;11.70;99.90;;;;;;25592866;23;20075;-59
2023/10/02 20:04:43;;;;;;;85.82;51.38;;;11.60;99.90;;;;;;25593052;23;20456;-58
2023/10/02 20:14:45;;;;;;;85.38;50.90;;;11.60;99.90;;;;;;25592446;23;20083;-59
2023/10/02 20:24:49;;;;;;;51.63;35.80;;;11.60;99.90;;;;;;25591901;23;20005;-58
2023/10/02 20:34:51;;;;;;;61.38;39.75;;;11.40;99.90;;;;;;25561826;23;20017;-52
2023/10/02 20:44:52;;;;;;;66.88;42.47;;;11.40;99.90;;;;;;25591488;23;20001;-51
2023/10/02 20:54:54;;;;;;;61.70;41.47;;;11.30;99.90;;;;;;25590793;23;20032;-58
2023/10/02 21:04:56;;;;;;;73.20;46.03;;;11.40;99.90;;;;;;25590839;23;20088;-58
2023/10/02 21:14:58;;;;;;;75.85;48.70;;;11.50;99.90;;;;;;25589942;23;20012;-54
2023/10/02 21:25:00;;;;;;;73.95;45.63;;;11.30;99.90;;;;;;25589680;23;20012;-58
2023/10/02 21:35:02;;;;;;;73.88;46.55;;;11.40;99.90;;;;;;25588420;23;20337;-48
2023/10/02 21:45:05;;;;;;;88.75;55.03;;;11.30;99.90;;;;;;25588151;23;20005;-58
2023/10/02 21:55:09;;;;;;;90.03;56.47;;;11.30;99.90;;;;;;25587717;23;20033;-58
2023/10/02 22:05:10;;;;;;;89.07;53.80;;;11.30;99.90;;;;;;25588035;23;20013;-51
2023/10/02 22:15:16;;;;;;;83.68;52.50;;;11.30;99.90;;;;;;25589638;23;20005;-58
2023/10/02 22:25:18;;;;;;;72.63;46.78;;;11.20;99.90;;;;;;25636699;23;20004;-58
2023/10/02 22:35:23;;;;;;;73.13;45.25;;;11.30;99.90;;;;;;25595247;23;20009;-52
2023/10/02 22:45:26;;;;;;;64.35;41.97;;;11.20;99.90;;;;;;25595010;23;20009;-50
2023/10/02 22:55:29;;;;;;;55.72;37.53;;;11.20;99.90;;;;;;25594430;23;20009;-50
2023/10/02 23:05:31;;;;;;;36.95;24.92;;;11.10;99.90;;;;;;25595606;23;20071;-53
2023/10/02 23:15:38;;;;;;;43.60;28.60;;;11.10;99.90;;;;;;25593672;23;20009;-51
2023/10/02 23:25:41;;;;;;;40.90;25.70;;;11.10;99.90;;;;;;25634444;23;20005;-49
2023/10/02 23:35:43;;;;;;;49.90;34.03;;;11.00;99.90;;;;;;25566329;23;20059;-52
2023/10/02 23:45:45;;;;;;;47.03;30.52;;;11.00;99.90;;;;;;25592561;23;20009;-58
2023/10/02 23:55:47;;;;;;;32.42;21.90;;;11.00;99.90;;;;;;25592438;23;20074;-58
